Time;durP1;ratioP1;P1;durP2;ratioP2;P2;SDS_P1;SDS_P2;PMS_P1;PMS_P2;Temp;Humidity;BMP_temperature;BMP_pressure;BME280_temperature;BME280_humidity;BME280_pressure;Samples;Min_cycle;Max_cycle;Signal;HPM_P1;HPM_P2
2023/01/07 00:01:32;;;;;;;65.60;7.57;;;11.10;99.90;;;;;;4904847;29;20228;-86
2023/01/07 00:03:59;;;;;;;67.50;8.13;;;11.10;99.90;;;;;;4922004;29;20287;-86
2023/01/07 00:06:29;;;;;;;65.00;7.13;;;11.10;99.90;;;;;;4921955;29;20166;-86
2023/01/07 00:08:56;;;;;;;65.28;8.68;;;11.10;99.90;;;;;;4921749;29;20177;-86
2023/01/07 00:11:25;;;;;;;64.80;7.68;;;11.00;99.90;;;;;;4921269;29;20217;-86
2023/01/07 00:13:53;;;;;;;66.68;9.30;;;11.00;99.90;;;;;;4921200;29;20260;-86
2023/01/07 00:16:20;;;;;;;64.88;7.50;;;11.00;99.90;;;;;;4921382;29;20206;-86
2023/01/07 00:18:47;;;;;;;65.47;7.68;;;11.00;99.90;;;;;;4920939;29;20176;-87
2023/01/07 00:21:15;;;;;;;65.20;8.07;;;11.00;99.90;;;;;;4921770;29;20195;-86
2023/01/07 00:23:42;;;;;;;65.75;8.38;;;11.00;99.90;;;;;;4925654;29;20248;-88
2023/01/07 00:26:20;;;;;;;66.35;8.05;;;11.00;99.90;;;;;;4912155;29;20169;-87
2023/01/07 00:28:48;;;;;;;65.00;7.82;;;10.90;99.90;;;;;;4926532;29;20158;-88
2023/01/07 00:31:21;;;;;;;64.68;7.57;;;10.90;99.90;;;;;;4907712;29;20564;-88
2023/01/07 00:34:05;;;;;;;65.28;7.28;;;11.00;99.90;;;;;;4923886;29;20216;-86
2023/01/07 00:36:37;;;;;;;67.50;8.60;;;10.90;99.90;;;;;;4905647;29;20272;-86
2023/01/07 00:39:06;;;;;;;65.30;8.40;;;10.90;99.90;;;;;;4905768;29;20260;-86
2023/01/07 00:41:33;;;;;;;66.10;8.88;;;10.90;99.90;;;;;;4921840;29;20193;-86
2023/01/07 00:43:58;;;;;;;69.80;9.00;;;10.90;99.90;;;;;;4904149;29;20259;-86
2023/01/07 00:46:24;;;;;;;66.00;9.30;;;10.90;99.90;;;;;;4920847;29;20225;-86
2023/01/07 00:48:50;;;;;;;65.27;8.13;;;10.90;99.90;;;;;;4904263;29;20418;-86
2023/01/07 00:51:17;;;;;;;66.30;9.23;;;10.90;99.90;;;;;;4903593;29;20440;-86
2023/01/07 00:53:43;;;;;;;66.95;9.35;;;10.80;99.90;;;;;;4920305;29;20470;-86
2023/01/07 00:56:09;;;;;;;65.07;8.40;;;10.80;99.90;;;;;;4903524;29;20547;-86
2023/01/07 00:58:35;;;;;;;67.72;9.52;;;10.80;99.90;;;;;;4903744;29;20595;-86
2023/01/07 01:01:01;;;;;;;67.33;8.13;;;10.80;99.90;;;;;;4920292;29;20189;-86
2023/01/07 01:03:29;;;;;;;67.75;9.32;;;10.80;99.90;;;;;;4921065;29;20972;-86
2023/01/07 01:06:03;;;;;;;68.20;11.57;;;10.80;99.90;;;;;;4904297;29;20189;-86
2023/01/07 01:08:29;;;;;;;66.20;9.35;;;10.70;99.90;;;;;;4921616;29;20157;-86
2023/01/07 01:10:55;;;;;;;68.07;11.23;;;10.70;99.90;;;;;;4921055;29;20192;-86
2023/01/07 01:13:21;;;;;;;68.20;10.43;;;10.70;99.90;;;;;;4921185;29;20228;-86
2023/01/07 01:15:48;;;;;;;67.47;9.93;;;10.70;99.90;;;;;;4921095;29;20209;-86
2023/01/07 01:18:15;;;;;;;66.85;11.00;;;10.60;99.90;;;;;;4903465;29;20649;-86
2023/01/07 01:20:41;;;;;;;68.10;10.05;;;10.60;99.90;;;;;;4903572;29;20189;-86
2023/01/07 01:23:07;;;;;;;67.10;11.23;;;10.60;99.90;;;;;;4920265;29;20170;-86
2023/01/07 01:25:32;;;;;;;66.17;10.27;;;10.60;99.90;;;;;;4920758;29;20185;-86
2023/01/07 01:27:58;;;;;;;66.73;10.93;;;10.60;99.90;;;;;;4920580;29;20401;-86
2023/01/07 01:30:24;;;;;;;67.47;8.90;;;10.60;99.90;;;;;;4920693;29;20190;-86
2023/01/07 01:32:49;;;;;;;68.13;9.83;;;10.60;99.90;;;;;;4920467;29;20213;-86
2023/01/07 01:35:15;;;;;;;66.00;10.30;;;10.60;99.90;;;;;;4920535;29;20701;-86
2023/01/07 01:37:41;;;;;;;67.10;9.53;;;10.50;99.90;;;;;;4920239;29;20173;-86
2023/01/07 01:40:08;;;;;;;67.80;9.90;;;10.50;99.90;;;;;;4920616;29;20861;-86
2023/01/07 01:42:34;;;;;;;65.95;8.40;;;10.50;99.90;;;;;;4920125;29;20173;-86
2023/01/07 01:45:01;;;;;;;66.90;10.30;;;10.40;99.90;;;;;;4920100;29;20189;-86
2023/01/07 01:47:48;;;;;;;66.60;10.75;;;10.30;99.90;;;;;;4903854;29;20633;-86
2023/01/07 01:50:31;;;;;;;67.82;10.70;;;10.30;99.90;;;;;;4919718;29;20248;-86
2023/01/07 01:53:09;;;;;;;68.43;11.25;;;10.30;99.90;;;;;;4919449;29;20233;-86
2023/01/07 01:55:38;;;;;;;67.05;10.75;;;10.20;99.90;;;;;;4902468;29;20224;-86
2023/01/07 01:58:08;;;;;;;67.32;12.05;;;10.10;99.90;;;;;;4919775;29;20212;-86
2023/01/07 02:00:34;;;;;;;69.38;14.35;;;10.00;99.90;;;;;;4902252;29;20204;-86
2023/01/07 02:03:01;;;;;;;67.57;12.90;;;10.00;99.90;;;;;;4906352;29;20184;-88
2023/01/07 02:05:34;;;;;;;66.47;11.18;;;9.90;99.90;;;;;;4909893;29;20748;-88
2023/01/07 02:08:00;;;;;;;67.47;12.70;;;9.90;99.90;;;;;;4924720;29;20180;-88
2023/01/07 02:10:27;;;;;;;66.60;12.00;;;9.90;99.90;;;;;;4922933;29;20181;-87
2023/01/07 02:13:03;;;;;;;67.00;13.05;;;9.80;99.90;;;;;;4905097;29;20181;-86
2023/01/07 02:15:40;;;;;;;67.65;11.90;;;9.80;99.90;;;;;;4920813;29;20214;-86
2023/01/07 02:18:30;;;;;;;67.38;12.85;;;9.70;99.90;;;;;;4903678;29;20165;-89
2023/01/07 02:20:58;;;;;;;69.90;12.60;;;9.60;99.90;;;;;;4919525;29;20241;-87
2023/01/07 02:23:37;;;;;;;70.38;13.05;;;9.60;99.90;;;;;;4919126;29;20237;-86
2023/01/07 02:26:37;;;;;;;66.43;11.57;;;9.50;99.90;;;;;;4901916;29;20197;-86
2023/01/07 02:29:06;;;;;;;67.22;9.95;;;9.50;99.90;;;;;;4897796;29;20645;-86
2023/01/07 02:34:41;;;;;;;65.40;7.75;;;9.50;99.90;;;;;;5005622;23;20233;-87
2023/01/07 02:37:26;;;;;;;65.65;7.85;;;9.60;99.90;;;;;;4938124;29;20150;-87
2023/01/07 02:40:21;;;;;;;67.75;9.20;;;9.60;99.90;;;;;;4937118;29;20199;-87
2023/01/07 02:42:53;;;;;;;66.05;8.82;;;9.60;99.90;;;;;;4938048;29;20149;-87
2023/01/07 02:45:27;;;;;;;66.75;10.25;;;9.60;99.90;;;;;;4937882;29;20197;-87
2023/01/07 02:47:57;;;;;;;67.05;9.48;;;9.50;99.90;;;;;;4921299;29;20177;-87
2023/01/07 02:50:23;;;;;;;71.18;8.02;;;9.50;99.90;;;;;;4937662;29;20178;-87
2023/01/07 02:52:49;;;;;;;70.93;8.97;;;9.50;99.90;;;;;;4938049;29;20180;-87
2023/01/07 02:55:18;;;;;;;65.87;7.40;;;9.50;99.90;;;;;;4937864;29;20163;-87
2023/01/07 02:58:08;;;;;;;65.75;8.05;;;9.50;99.90;;;;;;4937555;29;20154;-87
2023/01/07 03:01:18;;;;;;;66.53;7.90;;;9.50;99.90;;;;;;4937865;29;20180;-87
2023/01/07 03:03:47;;;;;;;65.50;7.82;;;9.50;99.90;;;;;;4937428;29;20186;-87
2023/01/07 03:06:13;;;;;;;65.28;6.70;;;9.50;99.90;;;;;;4937714;29;20169;-86
2023/01/07 03:09:15;;;;;;;66.07;8.43;;;9.50;99.90;;;;;;4937857;29;20225;-87
2023/01/07 03:11:48;;;;;;;65.32;7.35;;;9.50;99.90;;;;;;4937324;29;20193;-87
2023/01/07 03:14:25;;;;;;;65.68;8.70;;;9.50;99.90;;;;;;4937495;29;20153;-87
2023/01/07 03:16:58;;;;;;;67.07;8.45;;;9.50;99.90;;;;;;4936930;29;20157;-87
2023/01/07 03:19:34;;;;;;;66.47;9.02;;;9.40;99.90;;;;;;4937132;29;20289;-86
2023/01/07 03:22:02;;;;;;;66.28;8.95;;;9.40;99.90;;;;;;4936454;29;20161;-87
2023/01/07 03:24:30;;;;;;;65.85;7.53;;;9.40;99.90;;;;;;4936758;29;20252;-87
2023/01/07 03:26:58;;;;;;;66.47;8.05;;;9.50;99.90;;;;;;4920293;29;20176;-87
2023/01/07 03:29:24;;;;;;;66.85;8.57;;;9.50;99.90;;;;;;4936462;29;20157;-87
2023/01/07 03:31:57;;;;;;;67.57;8.95;;;9.40;99.90;;;;;;4936679;29;20169;-87
2023/01/07 03:34:25;;;;;;;65.93;8.15;;;9.50;99.90;;;;;;4936778;29;20192;-87
2023/01/07 03:37:02;;;;;;;65.90;7.35;;;9.50;99.90;;;;;;4936683;29;20165;-87
2023/01/07 03:39:32;;;;;;;65.82;6.80;;;9.50;99.90;;;;;;4936580;29;20157;-86
2023/01/07 03:44:42;;;;;;;65.80;7.28;;;9.50;99.90;;;;;;4937516;29;20217;-87
2023/01/07 03:47:08;;;;;;;66.50;7.10;;;9.40;99.90;;;;;;4920056;29;20169;-87
2023/01/07 03:49:36;;;;;;;71.53;7.28;;;9.50;99.90;;;;;;4919982;29;20805;-87
2023/01/07 03:52:02;;;;;;;65.30;6.88;;;9.50;99.90;;;;;;4936925;29;20166;-87
2023/01/07 03:54:28;;;;;;;65.47;6.40;;;9.60;99.90;;;;;;4919749;29;20233;-87
2023/01/07 03:56:53;;;;;;;65.47;7.80;;;9.60;99.90;;;;;;4919847;29;20180;-87
2023/01/07 03:59:19;;;;;;;66.20;8.83;;;9.60;99.90;;;;;;4935058;29;20160;-88
2023/01/07 04:01:45;;;;;;;66.80;7.30;;;9.70;99.90;;;;;;4935932;29;20173;-87
2023/01/07 04:04:10;;;;;;;67.57;13.23;;;9.70;99.90;;;;;;4935315;29;20197;-87
2023/01/07 04:06:36;;;;;;;67.67;11.50;;;9.80;99.90;;;;;;4920129;29;20178;-87
2023/01/07 04:09:02;;;;;;;67.87;12.20;;;9.80;99.90;;;;;;4938234;29;20416;-87
2023/01/07 04:11:30;;;;;;;66.47;9.67;;;10.00;99.90;;;;;;4936674;29;20193;-87
2023/01/07 04:13:59;;;;;;;65.60;7.78;;;10.10;99.90;;;;;;4921402;29;20202;-87
2023/01/07 04:16:25;;;;;;;67.47;9.55;;;10.20;99.90;;;;;;4937474;29;20176;-87
2023/01/07 04:18:51;;;;;;;66.43;8.40;;;10.20;99.90;;;;;;4937680;29;20170;-87
2023/01/07 04:21:17;;;;;;;66.50;7.63;;;10.30;99.90;;;;;;4937508;29;20183;-87
2023/01/07 04:23:42;;;;;;;65.10;6.37;;;10.30;99.90;;;;;;4936940;29;20197;-87
2023/01/07 04:26:08;;;;;;;68.07;6.07;;;10.40;99.90;;;;;;4922144;29;20184;-88
2023/01/07 04:28:34;;;;;;;66.40;8.93;;;10.50;99.90;;;;;;4939286;29;20201;-87
2023/01/07 04:30:59;;;;;;;66.37;7.97;;;10.50;99.90;;;;;;4941782;29;20189;-87
2023/01/07 04:33:25;;;;;;;66.63;8.17;;;10.50;99.90;;;;;;4941066;29;20201;-87
2023/01/07 04:35:51;;;;;;;71.53;11.30;;;10.60;99.90;;;;;;4941660;29;20396;-87
2023/01/07 04:38:17;;;;;;;66.97;11.87;;;10.60;99.90;;;;;;4941088;29;20411;-87
2023/01/07 04:40:43;;;;;;;66.30;12.30;;;10.60;99.90;;;;;;4941904;29;20241;-87
2023/01/07 04:43:09;;;;;;;66.78;9.95;;;10.60;99.90;;;;;;4941281;29;20169;-87
2023/01/07 04:45:36;;;;;;;65.45;8.27;;;10.60;99.90;;;;;;4924558;29;20201;-87
2023/01/07 04:48:02;;;;;;;65.80;8.90;;;10.60;99.90;;;;;;4940916;29;20158;-87
2023/01/07 04:50:27;;;;;;;65.22;8.55;;;10.60;99.90;;;;;;4941754;29;20213;-87
2023/01/07 04:52:53;;;;;;;66.30;10.63;;;10.70;99.90;;;;;;4925352;29;20544;-87
2023/01/07 04:55:19;;;;;;;69.63;10.60;;;10.70;99.90;;;;;;4941190;29;20188;-87
2023/01/07 04:57:44;;;;;;;66.50;11.43;;;10.70;99.90;;;;;;4924856;29;20185;-87
2023/01/07 05:00:10;;;;;;;66.00;11.10;;;10.70;99.90;;;;;;4924723;29;20707;-87
2023/01/07 05:02:36;;;;;;;66.28;10.70;;;10.60;99.90;;;;;;4941197;29;20177;-87
2023/01/07 05:05:05;;;;;;;66.07;11.63;;;10.60;99.90;;;;;;4924832;29;20205;-87
2023/01/07 05:07:31;;;;;;;67.70;13.48;;;10.60;99.90;;;;;;4941395;29;20157;-86
2023/01/07 05:09:57;;;;;;;67.37;11.43;;;10.50;99.90;;;;;;4941111;29;20193;-86
2023/01/07 05:12:22;;;;;;;66.07;9.43;;;10.50;99.90;;;;;;4941554;29;20420;-86
2023/01/07 05:14:48;;;;;;;66.13;10.33;;;10.60;99.90;;;;;;4941466;29;20197;-87
2023/01/07 05:17:14;;;;;;;65.73;9.90;;;10.60;99.90;;;;;;4941476;29;20181;-87
2023/01/07 05:19:40;;;;;;;65.57;10.03;;;10.60;99.90;;;;;;4924321;29;20264;-87
2023/01/07 05:22:05;;;;;;;65.07;8.30;;;10.60;99.90;;;;;;4924240;29;20210;-87
2023/01/07 05:24:31;;;;;;;67.30;11.50;;;10.60;99.90;;;;;;4923573;29;20437;-88
2023/01/07 05:26:56;;;;;;;66.30;10.70;;;10.60;99.90;;;;;;4923552;29;20161;-87
2023/01/07 05:29:22;;;;;;;68.03;9.90;;;10.60;99.90;;;;;;4923760;29;20175;-87
2023/01/07 05:31:48;;;;;;;67.13;10.70;;;10.60;99.90;;;;;;4940214;29;20173;-87
2023/01/07 05:34:14;;;;;;;67.50;10.80;;;10.50;99.90;;;;;;4923758;29;20220;-87
2023/01/07 05:36:39;;;;;;;66.33;9.70;;;10.50;99.90;;;;;;4940577;29;20241;-87
2023/01/07 05:39:05;;;;;;;67.10;10.60;;;10.50;99.90;;;;;;4939813;29;20189;-87
2023/01/07 05:41:31;;;;;;;65.67;10.70;;;10.50;99.90;;;;;;4939375;29;20193;-87
2023/01/07 05:43:57;;;;;;;68.67;11.10;;;10.50;99.90;;;;;;4940232;29;20457;-87
2023/01/07 05:46:23;;;;;;;66.97;11.73;;;10.50;99.90;;;;;;4940567;29;20169;-87
2023/01/07 05:48:48;;;;;;;66.82;11.23;;;10.40;99.90;;;;;;4923316;29;20177;-87
2023/01/07 05:51:14;;;;;;;67.17;12.00;;;10.40;99.90;;;;;;4939675;29;20185;-87
2023/01/07 05:53:40;;;;;;;67.60;12.43;;;10.40;99.90;;;;;;4939557;29;20169;-87
2023/01/07 05:56:06;;;;;;;67.63;12.20;;;10.40;99.90;;;;;;4924586;29;20445;-87
2023/01/07 05:58:32;;;;;;;70.47;13.67;;;10.40;99.90;;;;;;4940483;29;20169;-87
2023/01/07 06:00:57;;;;;;;69.60;16.07;;;10.40;99.90;;;;;;4940081;29;20436;-87
2023/01/07 06:03:23;;;;;;;66.87;12.13;;;10.40;99.90;;;;;;4940593;29;20158;-86
2023/01/07 06:05:49;;;;;;;67.10;11.60;;;10.40;99.90;;;;;;4940659;29;20169;-87
2023/01/07 06:08:15;;;;;;;67.17;9.17;;;10.40;99.90;;;;;;4940820;29;20169;-86
2023/01/07 06:10:41;;;;;;;67.37;11.37;;;10.40;99.90;;;;;;4940070;29;20430;-87
2023/01/07 06:13:07;;;;;;;67.10;12.75;;;10.40;99.90;;;;;;4940213;29;20146;-87
2023/01/07 06:15:32;;;;;;;69.43;11.93;;;10.40;99.90;;;;;;4940696;29;20165;-86
2023/01/07 06:17:58;;;;;;;67.00;10.20;;;10.40;99.90;;;;;;4940160;29;20236;-87
2023/01/07 06:20:24;;;;;;;67.73;14.53;;;10.40;99.90;;;;;;4924116;29;20201;-87
2023/01/07 06:22:50;;;;;;;67.30;10.27;;;10.40;99.90;;;;;;4940107;29;20165;-87
2023/01/07 06:25:16;;;;;;;67.67;12.97;;;10.40;99.90;;;;;;4939949;29;20445;-86
2023/01/07 06:27:42;;;;;;;68.65;12.63;;;10.40;99.90;;;;;;4940581;29;20157;-87
2023/01/07 06:30:12;;;;;;;66.50;11.27;;;10.40;99.90;;;;;;4940282;29;20185;-87
2023/01/07 06:32:42;;;;;;;66.35;10.45;;;10.40;99.90;;;;;;4939762;29;20238;-87
2023/01/07 06:35:10;;;;;;;67.20;11.07;;;10.40;99.90;;;;;;4923683;29;20170;-86
2023/01/07 06:37:36;;;;;;;67.78;13.40;;;10.40;99.90;;;;;;4939747;29;20173;-88
2023/01/07 06:40:02;;;;;;;68.10;13.43;;;10.40;99.90;;;;;;4938384;29;20196;-87
2023/01/07 06:42:31;;;;;;;66.97;12.35;;;10.30;99.90;;;;;;4921885;29;20169;-87
2023/01/07 06:44:57;;;;;;;67.68;12.32;;;10.40;99.90;;;;;;4937878;29;20197;-87
2023/01/07 06:47:25;;;;;;;69.50;10.90;;;10.30;99.90;;;;;;4937866;29;20169;-87
2023/01/07 06:49:51;;;;;;;67.22;13.20;;;10.30;99.90;;;;;;4938309;29;20209;-87
2023/01/07 06:52:17;;;;;;;66.77;11.60;;;10.30;99.90;;;;;;4937905;29;20166;-88
2023/01/07 06:54:46;;;;;;;70.13;12.13;;;10.30;99.90;;;;;;4921344;29;20441;-86
2023/01/07 06:57:12;;;;;;;67.35;11.15;;;10.30;99.90;;;;;;4938961;29;20177;-87
2023/01/07 06:59:37;;;;;;;69.27;13.00;;;10.30;99.90;;;;;;4937548;29;20248;-87
2023/01/07 07:02:03;;;;;;;66.90;12.10;;;10.30;99.90;;;;;;4936649;29;20413;-88
2023/01/07 07:04:29;;;;;;;67.90;13.40;;;10.30;99.90;;;;;;4919386;29;20201;-88
2023/01/07 07:06:55;;;;;;;67.67;10.57;;;10.20;99.90;;;;;;4937231;29;20425;-86
2023/01/07 07:09:21;;;;;;;66.30;10.35;;;10.30;99.90;;;;;;4938039;29;20556;-87
2023/01/07 07:11:46;;;;;;;68.20;11.13;;;10.30;99.90;;;;;;4937500;29;20149;-88
2023/01/07 07:14:12;;;;;;;72.57;12.87;;;10.30;99.90;;;;;;4937759;29;20197;-86
2023/01/07 07:16:38;;;;;;;67.60;12.80;;;10.30;99.90;;;;;;4938742;29;20240;-88
2023/01/07 07:19:04;;;;;;;66.60;11.47;;;10.30;99.90;;;;;;4938689;29;20173;-86
2023/01/07 07:21:29;;;;;;;66.60;10.80;;;10.30;99.90;;;;;;4938383;29;20463;-88
2023/01/07 07:23:55;;;;;;;66.27;11.10;;;10.30;99.90;;;;;;4938766;29;20683;-86
2023/01/07 07:26:21;;;;;;;68.30;12.13;;;10.20;99.90;;;;;;4938039;29;20169;-87
2023/01/07 07:28:46;;;;;;;67.47;13.00;;;10.20;99.90;;;;;;4922975;29;20157;-88
2023/01/07 07:31:12;;;;;;;66.90;12.40;;;10.10;99.90;;;;;;4938919;29;20197;-86
2023/01/07 07:33:38;;;;;;;65.50;9.80;;;10.10;99.90;;;;;;4921674;29;20189;-86
2023/01/07 07:36:04;;;;;;;67.03;11.97;;;10.20;99.90;;;;;;4938949;29;20173;-86
2023/01/07 07:38:29;;;;;;;67.05;11.95;;;10.10;99.90;;;;;;4939354;29;20170;-87
2023/01/07 07:40:55;;;;;;;68.47;12.70;;;10.20;99.90;;;;;;4939174;29;20272;-86
2023/01/07 07:43:21;;;;;;;65.70;10.13;;;10.10;99.90;;;;;;4939362;29;20210;-86
2023/01/07 07:45:47;;;;;;;67.35;10.80;;;10.20;99.90;;;;;;4922538;29;20414;-86
2023/01/07 07:48:14;;;;;;;67.07;9.80;;;10.20;99.90;;;;;;4939575;29;20172;-86
2023/01/07 07:50:40;;;;;;;67.60;12.27;;;10.20;99.90;;;;;;4939188;29;20222;-86
2023/01/07 07:53:08;;;;;;;66.97;11.77;;;10.20;99.90;;;;;;4923181;29;20178;-86
2023/01/07 07:55:37;;;;;;;67.72;10.60;;;10.20;99.90;;;;;;4939515;29;20398;-86
2023/01/07 07:58:02;;;;;;;67.10;12.07;;;10.10;99.90;;;;;;4939085;29;20156;-87
2023/01/07 08:00:28;;;;;;;66.90;10.47;;;10.20;99.90;;;;;;4939525;29;20193;-87
2023/01/07 08:02:57;;;;;;;67.37;10.97;;;10.20;99.90;;;;;;4938988;29;20165;-86
2023/01/07 08:05:22;;;;;;;67.65;11.35;;;10.20;99.90;;;;;;4925773;29;20189;-88
2023/01/07 08:07:50;;;;;;;67.80;12.17;;;10.20;99.90;;;;;;4942243;29;20193;-86
2023/01/07 08:10:17;;;;;;;67.10;13.05;;;10.20;99.90;;;;;;4925898;29;20554;-86
2023/01/07 08:12:42;;;;;;;67.13;11.35;;;10.20;99.90;;;;;;4943086;29;20169;-86
2023/01/07 08:15:08;;;;;;;65.67;9.70;;;10.20;99.90;;;;;;4926289;29;20268;-86
2023/01/07 08:17:37;;;;;;;67.20;12.18;;;10.30;99.90;;;;;;4941947;29;20217;-86
2023/01/07 08:20:04;;;;;;;72.65;9.98;;;10.30;99.90;;;;;;4942339;29;20201;-86
2023/01/07 08:22:33;;;;;;;66.70;10.00;;;10.30;99.90;;;;;;4942089;29;20181;-87
2023/01/07 08:25:00;;;;;;;66.78;9.82;;;10.30;99.90;;;;;;4925379;29;20260;-86
2023/01/07 08:27:29;;;;;;;67.80;9.88;;;10.30;99.90;;;;;;4925742;29;20177;-87
2023/01/07 08:29:55;;;;;;;66.40;11.70;;;10.40;99.90;;;;;;4940692;29;20204;-87
2023/01/07 08:32:21;;;;;;;67.68;13.32;;;10.40;99.90;;;;;;4938976;29;20179;-88
2023/01/07 08:34:47;;;;;;;66.78;12.95;;;10.40;99.90;;;;;;4939642;29;20180;-88
2023/01/07 08:37:14;;;;;;;66.80;12.07;;;10.40;99.90;;;;;;4939370;29;20169;-88
2023/01/07 08:39:39;;;;;;;68.10;12.10;;;10.40;99.90;;;;;;4938731;29;20221;-88
2023/01/07 08:42:05;;;;;;;68.40;12.63;;;10.40;99.90;;;;;;4936527;29;20581;-88
2023/01/07 08:44:33;;;;;;;66.30;11.43;;;10.40;99.90;;;;;;4937199;29;20452;-88
2023/01/07 08:46:59;;;;;;;68.60;14.23;;;10.40;99.90;;;;;;4938578;29;20165;-87
2023/01/07 08:49:24;;;;;;;67.53;14.00;;;10.40;99.90;;;;;;4993031;23;20241;-88
2023/01/07 08:51:50;;;;;;;67.47;12.03;;;10.40;99.90;;;;;;5016932;23;20228;-87
2023/01/07 08:54:19;;;;;;;69.05;15.20;;;10.40;99.90;;;;;;4939667;29;20166;-87
2023/01/07 08:56:45;;;;;;;67.78;14.40;;;10.50;99.90;;;;;;4940427;29;20157;-85
2023/01/07 08:59:11;;;;;;;67.50;13.97;;;10.50;99.90;;;;;;4922783;29;20221;-85
2023/01/07 09:01:36;;;;;;;68.60;12.55;;;10.50;99.90;;;;;;4940792;29;20193;-87
2023/01/07 09:04:02;;;;;;;68.40;16.00;;;10.50;99.90;;;;;;4940813;29;20184;-88
2023/01/07 09:06:31;;;;;;;69.50;13.53;;;10.50;99.90;;;;;;4923701;29;20268;-86
2023/01/07 09:08:56;;;;;;;68.05;13.88;;;10.50;99.90;;;;;;4940495;29;20165;-87
2023/01/07 09:11:22;;;;;;;69.40;16.60;;;10.60;99.90;;;;;;4940077;29;20244;-86
2023/01/07 09:13:48;;;;;;;68.27;11.40;;;10.60;99.90;;;;;;4940501;29;20165;-86
2023/01/07 09:16:14;;;;;;;67.97;13.03;;;10.70;99.90;;;;;;4923848;29;20184;-86
2023/01/07 09:18:39;;;;;;;67.27;12.47;;;10.70;99.90;;;;;;4941088;29;20153;-86
2023/01/07 09:21:05;;;;;;;69.17;12.27;;;10.70;99.90;;;;;;4941150;29;20193;-86
2023/01/07 09:23:31;;;;;;;67.00;14.37;;;10.70;99.90;;;;;;4922808;29;20177;-86
2023/01/07 09:25:57;;;;;;;67.50;13.00;;;10.80;99.90;;;;;;4940081;29;20166;-86
2023/01/07 09:28:25;;;;;;;66.60;10.43;;;10.80;99.90;;;;;;4940600;29;20161;-86
2023/01/07 09:30:51;;;;;;;67.95;11.50;;;10.80;99.90;;;;;;4940752;29;20196;-86
2023/01/07 09:33:17;;;;;;;68.33;14.27;;;10.80;99.90;;;;;;4940558;29;20166;-86
2023/01/07 09:35:43;;;;;;;67.17;13.40;;;10.70;99.90;;;;;;4940620;29;20162;-87
2023/01/07 09:38:08;;;;;;;67.13;9.90;;;10.70;99.90;;;;;;4939928;29;20409;-86
2023/01/07 09:40:40;;;;;;;68.67;14.17;;;10.80;99.90;;;;;;4940250;29;20432;-86
2023/01/07 09:43:30;;;;;;;68.78;16.48;;;10.70;99.90;;;;;;4940863;29;20197;-86
2023/01/07 09:46:03;;;;;;;67.82;11.63;;;10.70;99.90;;;;;;4924217;29;20176;-86
2023/01/07 09:48:42;;;;;;;68.95;14.02;;;10.80;99.90;;;;;;4923310;29;20160;-87
2023/01/07 09:51:20;;;;;;;69.50;13.68;;;10.70;99.90;;;;;;4921780;29;20356;-87
2023/01/07 09:53:50;;;;;;;69.53;15.15;;;10.80;99.90;;;;;;4924025;29;20181;-85
2023/01/07 09:56:33;;;;;;;70.50;13.20;;;10.80;99.90;;;;;;4940205;29;20186;-87
2023/01/07 09:59:00;;;;;;;69.55;16.52;;;10.80;99.90;;;;;;4940605;29;20180;-84
2023/01/07 10:01:42;;;;;;;69.63;13.18;;;10.90;99.90;;;;;;4923727;29;20222;-87
2023/01/07 10:04:25;;;;;;;69.70;16.23;;;10.90;99.90;;;;;;4940187;29;20205;-87
2023/01/07 10:07:14;;;;;;;70.22;13.10;;;11.00;99.90;;;;;;4940565;29;20161;-88
2023/01/07 10:09:51;;;;;;;68.70;14.13;;;11.10;99.90;;;;;;4939839;29;20185;-85
2023/01/07 10:13:01;;;;;;;69.22;14.98;;;11.10;99.90;;;;;;4939507;29;20147;-85
2023/01/07 10:15:44;;;;;;;69.40;14.52;;;11.00;99.90;;;;;;4863316;29;20168;-87
2023/01/07 10:18:48;;;;;;;69.72;15.82;;;11.10;99.90;;;;;;4863435;29;20194;-88
2023/01/07 10:21:25;;;;;;;69.25;12.65;;;11.10;99.90;;;;;;4913524;29;20232;-88
2023/01/07 10:24:02;;;;;;;69.28;13.40;;;11.10;99.90;;;;;;4936862;29;20192;-88
2023/01/07 10:26:41;;;;;;;69.63;15.77;;;11.10;99.90;;;;;;4937048;29;20150;-87
2023/01/07 10:29:17;;;;;;;70.82;15.02;;;11.00;99.90;;;;;;4937300;29;20217;-88
2023/01/07 10:31:44;;;;;;;73.07;16.73;;;11.00;99.90;;;;;;4922455;29;20168;-87
2023/01/07 10:34:20;;;;;;;70.43;14.32;;;11.00;99.90;;;;;;4938925;29;20637;-88
2023/01/07 10:36:59;;;;;;;72.47;13.70;;;11.10;99.90;;;;;;4938644;29;20152;-88
2023/01/07 10:39:27;;;;;;;69.00;13.57;;;11.10;99.90;;;;;;4939546;29;20168;-87
2023/01/07 10:42:09;;;;;;;69.78;13.15;;;11.00;99.90;;;;;;4939313;29;20253;-86
2023/01/07 10:45:09;;;;;;;70.30;13.38;;;11.10;99.90;;;;;;4940429;29;20185;-87
2023/01/07 10:48:11;;;;;;;68.40;12.43;;;11.10;99.90;;;;;;4862663;29;20183;-86
2023/01/07 16:50:12;;;;;;;69.70;13.77;;;9.80;96.90;;;;;;6157426;22;2103149;-87
2023/01/07 16:52:51;;;;;;;69.00;12.00;;;9.80;96.00;;;;;;6251511;23;20148;-86
2023/01/07 16:55:46;;;;;;;68.07;8.68;;;9.80;96.20;;;;;;6254214;23;20128;-88
2023/01/07 16:58:51;;;;;;;68.85;12.35;;;9.90;95.60;;;;;;6255352;23;20243;-88
2023/01/07 17:01:27;;;;;;;68.80;9.75;;;9.90;95.10;;;;;;6247917;22;20245;-87
2023/01/07 17:03:57;;;;;;;69.20;13.95;;;9.80;95.50;;;;;;6252765;23;20124;-88
2023/01/07 17:06:37;;;;;;;68.13;11.50;;;9.80;96.00;;;;;;6225159;23;20148;-86
2023/01/07 17:09:03;;;;;;;71.22;12.57;;;9.90;96.90;;;;;;6222768;23;20140;-86
2023/01/07 17:11:37;;;;;;;67.90;13.50;;;9.80;97.50;;;;;;6222555;23;20222;-87
2023/01/07 17:14:03;;;;;;;69.18;13.25;;;9.80;98.30;;;;;;6249427;23;20666;-86
2023/01/07 17:16:33;;;;;;;70.13;12.80;;;9.80;98.10;;;;;;6250578;23;20158;-86
2023/01/07 17:19:24;;;;;;;68.47;14.07;;;9.80;97.30;;;;;;6248874;23;20150;-86
2023/01/07 17:21:50;;;;;;;68.85;10.63;;;9.80;98.00;;;;;;6249239;23;20209;-87
2023/01/07 17:24:28;;;;;;;67.95;11.00;;;9.80;96.50;;;;;;6222883;23;20148;-86
2023/01/07 17:27:00;;;;;;;69.07;14.02;;;9.90;96.30;;;;;;6249228;23;20169;-87
2023/01/07 17:29:35;;;;;;;68.78;11.52;;;9.80;97.90;;;;;;6249151;22;20129;-86
2023/01/07 17:32:02;;;;;;;69.75;13.65;;;9.80;98.10;;;;;;6249393;23;20139;-86
2023/01/07 17:34:28;;;;;;;68.30;11.38;;;9.80;99.20;;;;;;6249233;23;20144;-86
2023/01/07 17:36:53;;;;;;;71.47;13.57;;;9.70;99.40;;;;;;6222536;23;20642;-86
2023/01/07 17:39:19;;;;;;;68.30;12.70;;;9.70;99.60;;;;;;6222658;22;20174;-86
2023/01/07 17:44:31;;;;;;;67.53;10.57;;;9.70;99.00;;;;;;6249772;23;20134;-86
2023/01/07 17:46:57;;;;;;;69.13;13.55;;;9.70;99.00;;;;;;6249322;23;20214;-86
2023/01/07 17:49:23;;;;;;;69.70;13.07;;;9.80;99.60;;;;;;6248971;22;20158;-86
2023/01/07 17:51:49;;;;;;;69.90;14.60;;;9.70;99.90;;;;;;6248612;23;20370;-87
2023/01/07 17:54:24;;;;;;;69.32;13.60;;;9.80;99.90;;;;;;6222460;23;20154;-86
2023/01/07 17:56:51;;;;;;;68.28;11.45;;;9.80;99.90;;;;;;6172599;23;20147;-86
2023/01/07 17:59:21;;;;;;;69.85;11.73;;;9.80;99.90;;;;;;6248508;23;20147;-86
2023/01/07 18:01:50;;;;;;;68.47;12.15;;;9.80;99.90;;;;;;6249176;23;20498;-87
2023/01/07 18:04:16;;;;;;;69.22;14.30;;;9.80;99.90;;;;;;6222883;23;20144;-87
2023/01/07 18:06:43;;;;;;;68.85;15.13;;;9.80;99.90;;;;;;6222624;23;20619;-87
2023/01/07 18:09:10;;;;;;;69.40;13.27;;;9.80;99.90;;;;;;6251380;23;20136;-86
2023/01/07 18:14:24;;;;;;;68.35;10.43;;;9.70;99.90;;;;;;6250465;23;20140;-88
2023/01/07 18:16:53;;;;;;;69.37;12.10;;;9.70;99.90;;;;;;6223286;23;20151;-87
2023/01/07 18:19:19;;;;;;;69.70;13.45;;;9.80;99.90;;;;;;6223137;22;20447;-87
2023/01/07 18:21:45;;;;;;;70.20;13.48;;;9.80;99.90;;;;;;6223201;23;20168;-87
2023/01/07 18:24:15;;;;;;;68.85;11.52;;;9.80;99.90;;;;;;6249646;23;20163;-87
2023/01/07 18:26:41;;;;;;;68.03;10.27;;;9.80;99.90;;;;;;6250048;23;20479;-86
2023/01/07 18:29:10;;;;;;;68.97;11.30;;;9.80;99.90;;;;;;6249644;23;20214;-86
2023/01/07 18:31:40;;;;;;;68.22;9.10;;;9.80;99.90;;;;;;6222645;23;20458;-87
2023/01/07 18:34:07;;;;;;;68.90;13.55;;;9.80;99.90;;;;;;6250060;23;20139;-87
2023/01/07 18:36:33;;;;;;;69.97;13.52;;;9.80;99.90;;;;;;6249781;23;20206;-87
2023/01/07 18:38:59;;;;;;;72.30;15.10;;;9.80;99.90;;;;;;6250292;23;20496;-86
2023/01/07 18:41:24;;;;;;;69.83;11.87;;;9.90;99.90;;;;;;6248902;22;20168;-86
2023/01/07 18:43:50;;;;;;;70.20;11.37;;;9.90;99.90;;;;;;6222667;23;20136;-86
2023/01/07 18:46:16;;;;;;;67.77;9.13;;;10.00;99.90;;;;;;6222126;23;20229;-86
2023/01/07 18:48:42;;;;;;;67.40;9.20;;;10.00;99.30;;;;;;6226187;23;20148;-86
2023/01/07 18:51:10;;;;;;;68.00;9.20;;;10.10;98.00;;;;;;6223093;23;20621;-86
2023/01/07 18:53:36;;;;;;;71.07;10.23;;;10.20;97.50;;;;;;6247500;23;20223;-86
2023/01/07 18:56:02;;;;;;;67.40;10.93;;;10.20;97.00;;;;;;6248919;23;20151;-86